CheckWX is a tool to help pilots better visualize weather data.  It is not intended as a substitute for an official pre-flight weather briefing.

08:22:40 UTC

KCNK METAR
Blosser Municipal Airport
Concordia, Kansas, USA
Current

28 mins ago

KCNK 220755Z AUTO 09006KT 10SM CLR M03/M06 A3016 RMK AO2 SLP226 T10281061
Observed
Feb-22 @ 07:55 UTC
Wind
  • 090° at 6 KTS
Visibility
10 SM
Flight Rules
VFR
Cloud Levels
  • Clear skies
Temperature
-3°C / 27°F
Dewpoint
-6°C / 21°F
Humidity
80%
Altimeter
30.16" Hg
Pressure
1022.6 hPa
Previous

1 hour ago

KCNK 220655Z AUTO 10009KT 10SM CLR M02/M06 A3015 RMK AO2 SLP223 T10171061
Observed
Feb-22 @ 06:55 UTC
Wind
  • 100° at 9 KTS
Visibility
10 SM
Flight Rules
VFR
Cloud Levels
  • Clear skies
Temperature
-2°C / 28°F
Dewpoint
-6°C / 21°F
Humidity
74%
Altimeter
30.15" Hg
Pressure
1022.3 hPa
Previous

2 hours ago

KCNK 220555Z AUTO 09008KT 10SM CLR M02/M06 A3015 RMK AO2 SLP222 T10171056 10022 21017 400221128 50010
Observed
Feb-22 @ 05:55 UTC
Wind
  • 090° at 8 KTS
Visibility
10 SM
Flight Rules
VFR
Cloud Levels
  • Clear skies
Temperature
-2°C / 28°F
Dewpoint
-6°C / 21°F
Humidity
74%
Altimeter
30.15" Hg
Pressure
1022.2 hPa